Time;durP1;ratioP1;P1;durP2;ratioP2;P2;SDS_P1;SDS_P2;PMS_P1;PMS_P2;Temp;Humidity;BMP_temperature;BMP_pressure;BME280_temperature;BME280_humidity;BME280_pressure;Samples;Min_cycle;Max_cycle;Signal;HPM_P1;HPM_P2
2022/08/21 00:02:26;;;;;;;10.57;9.68;;;;;;;;;;4894770;29;20096;-67
2022/08/21 00:04:52;;;;;;;10.73;9.75;;;;;;;;;;4895591;29;20473;-68
2022/08/21 00:07:18;;;;;;;10.90;9.90;;;;;;;;;;4895649;29;20095;-68
2022/08/21 00:09:44;;;;;;;10.20;9.40;;;;;;;;;;4893987;29;20136;-68
2022/08/21 00:12:10;;;;;;;10.38;9.52;;;;;;;;;;4893564;29;20519;-68
2022/08/21 00:14:36;;;;;;;10.68;9.63;;;;;;;;;;4893859;29;20048;-68
2022/08/21 00:17:03;;;;;;;10.27;9.48;;;;;;;;;;4891219;29;20033;-68
2022/08/21 00:19:28;;;;;;;10.93;9.95;;;;;;;;;;4891394;29;20037;-67
2022/08/21 00:21:54;;;;;;;11.27;10.48;;;;;;;;;;4892966;29;20092;-68
2022/08/21 00:24:22;;;;;;;10.95;10.15;;;;;;;;;;4894689;29;20707;-67
2022/08/21 00:26:48;;;;;;;10.80;9.80;;;;;;;;;;4892493;29;20050;-67
2022/08/21 00:29:14;;;;;;;10.90;9.90;;;;;;;;;;4895856;29;20049;-67
2022/08/21 00:31:41;;;;;;;11.77;10.60;;;;;;;;;;4890673;29;20051;-68
2022/08/21 00:34:07;;;;;;;10.48;9.57;;;;;;;;;;4895547;29;20037;-67
2022/08/21 00:36:34;;;;;;;11.80;10.88;;;;;;;;;;4894249;29;20119;-68
2022/08/21 00:39:00;;;;;;;10.90;10.00;;;;;;;;;;4888912;29;20033;-68
2022/08/21 00:41:26;;;;;;;11.52;10.32;;;;;;;;;;4895326;29;20119;-68
2022/08/21 00:43:53;;;;;;;10.52;9.68;;;;;;;;;;4895230;29;20036;-68
2022/08/21 00:46:19;;;;;;;10.88;9.98;;;;;;;;;;4894487;29;20080;-68
2022/08/21 00:48:44;;;;;;;11.02;10.02;;;;;;;;;;4894968;29;20128;-68
2022/08/21 00:51:18;;;;;;;11.40;10.10;;;;;;;;;;4895472;29;20107;-68
2022/08/21 00:53:45;;;;;;;10.50;9.70;;;;;;;;;;4894517;29;20036;-67
2022/08/21 00:56:12;;;;;;;12.68;10.40;;;;;;;;;;4894016;29;20044;-68
2022/08/21 00:58:41;;;;;;;11.07;9.95;;;;;;;;;;4892213;29;20032;-67
2022/08/21 01:01:08;;;;;;;11.60;10.60;;;;;;;;;;4894520;29;20040;-68
2022/08/21 01:03:35;;;;;;;12.10;10.95;;;;;;;;;;4895827;29;20135;-68
2022/08/21 01:06:04;;;;;;;11.25;10.43;;;;;;;;;;4895412;29;20032;-68
2022/08/21 01:08:30;;;;;;;11.40;10.50;;;;;;;;;;4896350;29;20028;-68
2022/08/21 01:10:56;;;;;;;11.48;10.25;;;;;;;;;;4910707;29;20051;-68
2022/08/21 01:13:26;;;;;;;11.30;10.20;;;;;;;;;;4892630;29;20088;-68
2022/08/21 01:15:53;;;;;;;11.43;10.43;;;;;;;;;;4893549;29;20068;-68
2022/08/21 01:18:20;;;;;;;11.38;10.45;;;;;;;;;;4890823;29;20048;-68
2022/08/21 01:21:10;;;;;;;11.77;9.75;;;;;;;;;;4894054;29;20037;-68
2022/08/21 01:23:37;;;;;;;10.77;9.77;;;;;;;;;;4893224;29;20044;-69
2022/08/21 01:26:04;;;;;;;11.63;10.00;;;;;;;;;;4894033;29;20060;-68
2022/08/21 01:28:34;;;;;;;11.57;10.52;;;;;;;;;;4891488;29;20469;-67
2022/08/21 01:31:01;;;;;;;11.02;10.00;;;;;;;;;;4892667;29;20028;-68
2022/08/21 01:33:27;;;;;;;10.27;9.40;;;;;;;;;;4893533;29;20511;-67
2022/08/21 01:35:53;;;;;;;11.18;10.25;;;;;;;;;;4891695;29;20052;-68
2022/08/21 01:38:18;;;;;;;10.57;9.75;;;;;;;;;;4892382;29;20119;-68
2022/08/21 01:40:44;;;;;;;11.32;10.43;;;;;;;;;;4893678;29;20037;-67
2022/08/21 01:43:10;;;;;;;11.52;10.25;;;;;;;;;;4891920;29;20036;-68
2022/08/21 01:45:35;;;;;;;13.23;10.82;;;;;;;;;;4893402;29;20048;-68
2022/08/21 01:48:02;;;;;;;11.25;10.35;;;;;;;;;;4893763;29;20048;-68
2022/08/21 01:50:27;;;;;;;11.43;10.55;;;;;;;;;;4893967;29;20048;-68
2022/08/21 01:52:53;;;;;;;11.25;10.30;;;;;;;;;;4891634;29;20040;-68
2022/08/21 01:55:19;;;;;;;12.23;10.82;;;;;;;;;;4892524;29;20037;-68
2022/08/21 01:57:45;;;;;;;12.18;10.70;;;;;;;;;;4893688;29;20036;-68
2022/08/21 02:00:13;;;;;;;12.20;11.25;;;;;;;;;;4893591;29;20149;-68
2022/08/21 02:02:40;;;;;;;11.57;10.43;;;;;;;;;;4887458;29;20037;-68
2022/08/21 02:05:09;;;;;;;13.68;11.25;;;;;;;;;;4891757;29;20067;-68
2022/08/21 02:07:44;;;;;;;12.48;11.18;;;;;;;;;;4892232;29;20120;-67
2022/08/21 02:10:13;;;;;;;11.75;10.32;;;;;;;;;;4891106;29;20039;-68
2022/08/21 02:12:38;;;;;;;13.15;11.95;;;;;;;;;;4891334;29;20104;-68
2022/08/21 02:15:05;;;;;;;12.18;11.23;;;;;;;;;;4891179;29;20123;-68
2022/08/21 02:17:46;;;;;;;12.32;11.13;;;;;;;;;;4893870;29;20508;-67
2022/08/21 02:20:19;;;;;;;13.75;12.18;;;;;;;;;;4888374;29;20033;-68
2022/08/21 02:22:45;;;;;;;17.45;11.30;;;;;;;;;;4893097;29;20032;-68
2022/08/21 02:25:11;;;;;;;12.45;11.35;;;;;;;;;;4890740;29;20040;-67
2022/08/21 02:27:40;;;;;;;12.63;11.52;;;;;;;;;;4891311;29;20040;-66
2022/08/21 02:30:06;;;;;;;13.70;12.32;;;;;;;;;;4893396;29;20045;-69
2022/08/21 02:32:32;;;;;;;13.32;12.13;;;;;;;;;;4892357;29;20036;-68
2022/08/21 02:34:57;;;;;;;12.43;11.43;;;;;;;;;;4891331;29;20037;-69
2022/08/21 02:37:24;;;;;;;12.73;11.63;;;;;;;;;;4892961;29;20040;-68
2022/08/21 02:39:49;;;;;;;12.20;10.93;;;;;;;;;;4890584;29;20037;-68
2022/08/21 02:42:15;;;;;;;12.93;11.70;;;;;;;;;;4892808;29;20028;-69
2022/08/21 02:44:41;;;;;;;12.90;11.70;;;;;;;;;;4892950;29;20131;-68
2022/08/21 02:47:06;;;;;;;12.55;11.55;;;;;;;;;;4891677;29;20555;-68
2022/08/21 02:49:32;;;;;;;12.80;11.80;;;;;;;;;;4891430;29;20025;-68
2022/08/21 02:51:58;;;;;;;11.80;10.65;;;;;;;;;;4890939;29;20473;-68
2022/08/21 02:54:23;;;;;;;13.35;11.95;;;;;;;;;;4892787;29;20040;-68
2022/08/21 02:56:49;;;;;;;13.73;12.10;;;;;;;;;;4887317;29;20043;-68
2022/08/21 02:59:14;;;;;;;12.68;11.38;;;;;;;;;;4893630;29;20442;-68
2022/08/21 03:01:42;;;;;;;13.20;11.93;;;;;;;;;;4891389;29;20139;-67
2022/08/21 03:04:07;;;;;;;13.30;12.10;;;;;;;;;;4889646;29;20551;-67
2022/08/21 03:06:33;;;;;;;13.02;11.70;;;;;;;;;;4891282;29;20120;-68
2022/08/21 03:08:59;;;;;;;12.73;11.20;;;;;;;;;;4892467;29;20060;-68
2022/08/21 03:11:26;;;;;;;13.05;11.80;;;;;;;;;;4890874;29;20386;-67
2022/08/21 03:13:52;;;;;;;13.32;12.07;;;;;;;;;;4889315;29;20037;-68
2022/08/21 03:16:19;;;;;;;12.52;11.38;;;;;;;;;;4891030;29;20044;-67
2022/08/21 03:18:45;;;;;;;13.68;11.65;;;;;;;;;;4892693;29;20037;-68
2022/08/21 03:21:11;;;;;;;14.00;11.45;;;;;;;;;;4892425;29;20044;-68
2022/08/21 03:23:39;;;;;;;12.82;11.43;;;;;;;;;;4891448;29;20040;-68
2022/08/21 03:26:05;;;;;;;12.10;11.00;;;;;;;;;;4892464;29;20036;-68
2022/08/21 03:28:32;;;;;;;15.20;12.10;;;;;;;;;;4892449;29;20041;-68
2022/08/21 03:30:58;;;;;;;13.25;11.95;;;;;;;;;;4893253;29;20040;-68
2022/08/21 03:33:23;;;;;;;15.23;12.45;;;;;;;;;;4891410;29;20412;-68
2022/08/21 03:36:01;;;;;;;14.02;12.38;;;;;;;;;;4892376;29;20036;-68
2022/08/21 03:38:30;;;;;;;14.00;12.05;;;;;;;;;;4890579;29;20088;-67
2022/08/21 03:40:56;;;;;;;13.15;11.95;;;;;;;;;;4890569;29;20040;-68
2022/08/21 03:43:22;;;;;;;14.65;12.25;;;;;;;;;;4889232;29;20108;-67
2022/08/21 03:45:48;;;;;;;13.23;11.95;;;;;;;;;;4887912;29;20124;-68
2022/08/21 03:48:14;;;;;;;12.55;11.40;;;;;;;;;;4890459;29;20124;-67
2022/08/21 03:50:42;;;;;;;14.25;11.82;;;;;;;;;;4890634;29;20619;-68
2022/08/21 03:53:09;;;;;;;12.77;11.67;;;;;;;;;;4890787;29;20762;-68
2022/08/21 03:55:35;;;;;;;12.43;11.32;;;;;;;;;;4891119;29;20390;-68
2022/08/21 03:58:01;;;;;;;12.20;11.20;;;;;;;;;;4889456;29;20040;-67
2022/08/21 04:00:27;;;;;;;11.95;11.05;;;;;;;;;;4891262;29;20044;-68
2022/08/21 04:02:52;;;;;;;13.15;11.48;;;;;;;;;;4895494;29;20033;-68
2022/08/21 04:05:26;;;;;;;12.27;11.18;;;;;;;;;;4894524;29;20041;-67
2022/08/21 04:07:58;;;;;;;12.20;10.93;;;;;;;;;;4892154;29;20382;-67
2022/08/21 04:10:24;;;;;;;12.70;11.48;;;;;;;;;;4894346;29;20036;-66
2022/08/21 04:12:50;;;;;;;12.70;11.45;;;;;;;;;;4893363;29;20032;-67
2022/08/21 04:15:16;;;;;;;12.60;11.50;;;;;;;;;;4894882;29;20037;-67
2022/08/21 04:17:42;;;;;;;15.05;11.70;;;;;;;;;;4893506;29;20040;-67
2022/08/21 04:20:08;;;;;;;13.68;12.20;;;;;;;;;;4895649;29;20116;-67
2022/08/21 04:22:34;;;;;;;18.70;12.43;;;;;;;;;;4894859;29;20109;-67
2022/08/21 04:24:59;;;;;;;12.82;11.60;;;;;;;;;;4893674;29;20071;-66
2022/08/21 04:27:25;;;;;;;13.45;12.15;;;;;;;;;;4895649;29;20060;-66
2022/08/21 04:29:51;;;;;;;13.15;11.85;;;;;;;;;;4895194;29;20136;-66
2022/08/21 04:32:22;;;;;;;12.57;11.40;;;;;;;;;;4894374;29;20036;-66
2022/08/21 04:34:48;;;;;;;13.20;11.60;;;;;;;;;;4890933;29;20047;-66
2022/08/21 04:37:15;;;;;;;13.75;12.27;;;;;;;;;;4890727;29;20107;-65
2022/08/21 04:39:41;;;;;;;12.75;11.75;;;;;;;;;;4889966;29;20044;-66
2022/08/21 04:42:09;;;;;;;13.15;11.82;;;;;;;;;;4894078;29;20064;-66
2022/08/21 04:44:34;;;;;;;13.10;12.10;;;;;;;;;;4890721;29;20041;-66
2022/08/21 04:47:00;;;;;;;13.40;12.13;;;;;;;;;;4892184;29;20033;-66
2022/08/21 04:49:26;;;;;;;13.35;12.05;;;;;;;;;;4891409;29;20889;-66
2022/08/21 04:51:52;;;;;;;13.18;12.02;;;;;;;;;;4891498;29;20040;-65
2022/08/21 04:54:22;;;;;;;13.10;11.95;;;;;;;;;;4891373;29;20107;-66
2022/08/21 04:56:53;;;;;;;14.90;12.85;;;;;;;;;;4889167;29;20036;-66
2022/08/21 04:59:24;;;;;;;14.30;12.85;;;;;;;;;;4888650;29;20028;-65
2022/08/21 05:01:51;;;;;;;14.05;12.90;;;;;;;;;;4888367;29;20037;-66
2022/08/21 05:04:21;;;;;;;14.38;12.95;;;;;;;;;;4887468;29;20593;-66
2022/08/21 05:06:50;;;;;;;15.38;13.90;;;;;;;;;;4890658;29;20040;-66
2022/08/21 05:09:18;;;;;;;15.65;13.20;;;;;;;;;;4887476;29;20036;-65
2022/08/21 05:11:44;;;;;;;21.08;13.07;;;;;;;;;;4887814;29;20064;-66
2022/08/21 05:14:11;;;;;;;14.95;12.73;;;;;;;;;;4886324;29;20100;-66
2022/08/21 05:16:37;;;;;;;15.40;13.75;;;;;;;;;;4885097;29;20048;-66
2022/08/21 05:19:04;;;;;;;15.38;12.98;;;;;;;;;;4885919;29;20039;-66
2022/08/21 05:21:30;;;;;;;14.65;12.90;;;;;;;;;;4892754;29;20036;-66
2022/08/21 05:23:55;;;;;;;13.75;12.55;;;;;;;;;;4892113;29;20048;-66
2022/08/21 05:26:21;;;;;;;13.07;11.90;;;;;;;;;;4886875;29;20473;-66
2022/08/21 05:28:47;;;;;;;12.73;11.63;;;;;;;;;;4888646;29;20489;-65
2022/08/21 05:31:12;;;;;;;14.15;12.73;;;;;;;;;;4892130;29;20037;-66
2022/08/21 05:33:38;;;;;;;14.02;12.75;;;;;;;;;;4890730;29;20060;-66
2022/08/21 05:36:03;;;;;;;11.65;10.57;;;;;;;;;;4889330;29;20664;-66
2022/08/21 05:38:29;;;;;;;11.18;10.30;;;;;;;;;;4889178;29;20048;-66
2022/08/21 05:40:54;;;;;;;11.70;10.48;;;;;;;;;;4888709;29;20039;-66
2022/08/21 05:43:20;;;;;;;13.25;10.77;;;;;;;;;;4890363;29;20041;-66
2022/08/21 05:45:47;;;;;;;10.88;10.10;;;;;;;;;;4891290;29;20322;-66
2022/08/21 05:48:14;;;;;;;11.73;10.60;;;;;;;;;;4890461;29;20425;-65
2022/08/21 05:50:41;;;;;;;11.40;10.50;;;;;;;;;;4891906;29;20072;-66
2022/08/21 05:53:07;;;;;;;11.68;10.70;;;;;;;;;;4888995;29;20539;-66
2022/08/21 05:55:33;;;;;;;11.52;10.73;;;;;;;;;;4887701;29;20040;-66
2022/08/21 05:57:59;;;;;;;13.30;11.90;;;;;;;;;;4890578;29;20055;-66
2022/08/21 06:00:24;;;;;;;12.23;11.18;;;;;;;;;;4890021;29;20032;-66
2022/08/21 06:02:50;;;;;;;11.63;10.63;;;;;;;;;;4888158;29;20040;-66
2022/08/21 06:05:16;;;;;;;12.52;10.80;;;;;;;;;;4889061;29;20116;-66
2022/08/21 06:07:43;;;;;;;11.65;10.65;;;;;;;;;;4889478;29;20116;-66
2022/08/21 06:10:09;;;;;;;11.43;10.25;;;;;;;;;;4890901;29;20119;-66
2022/08/21 06:12:34;;;;;;;11.27;10.32;;;;;;;;;;4889329;29;20047;-66
2022/08/21 06:15:00;;;;;;;11.20;10.38;;;;;;;;;;4889373;29;20037;-66
2022/08/21 06:17:25;;;;;;;11.77;10.68;;;;;;;;;;4890006;29;20451;-66
2022/08/21 06:19:52;;;;;;;11.95;10.73;;;;;;;;;;4889543;29;20462;-66
2022/08/21 06:22:18;;;;;;;10.82;10.13;;;;;;;;;;4889291;29;20052;-66
2022/08/21 06:24:44;;;;;;;11.82;10.75;;;;;;;;;;4891002;29;20032;-66
2022/08/21 06:27:10;;;;;;;11.93;11.02;;;;;;;;;;4887770;29;20032;-66
2022/08/21 06:29:36;;;;;;;10.80;10.00;;;;;;;;;;4891860;29;20036;-66
2022/08/21 06:32:02;;;;;;;10.63;9.55;;;;;;;;;;4889331;29;20075;-66
2022/08/21 06:34:28;;;;;;;10.05;9.35;;;;;;;;;;4887724;29;20032;-66
2022/08/21 06:36:54;;;;;;;10.13;9.50;;;;;;;;;;4905532;29;20044;-66
2022/08/21 06:39:19;;;;;;;9.60;8.82;;;;;;;;;;4887569;29;20107;-66
2022/08/21 06:41:45;;;;;;;9.90;9.30;;;;;;;;;;4889990;29;20549;-66
2022/08/21 06:44:11;;;;;;;10.68;9.85;;;;;;;;;;4891363;29;20128;-66
2022/08/21 06:46:37;;;;;;;10.32;9.25;;;;;;;;;;4890925;29;20041;-66
2022/08/21 06:49:03;;;;;;;9.95;9.23;;;;;;;;;;4891985;29;20025;-67
2022/08/21 06:51:29;;;;;;;9.88;9.07;;;;;;;;;;4892370;29;20047;-66
2022/08/21 06:53:55;;;;;;;9.98;8.98;;;;;;;;;;4888798;29;20041;-66
2022/08/21 06:56:20;;;;;;;9.98;9.27;;;;;;;;;;4889828;29;20058;-67
2022/08/21 06:58:46;;;;;;;10.00;9.30;;;;;;;;;;4890420;29;20036;-67
2022/08/21 07:01:12;;;;;;;10.52;9.63;;;;;;;;;;4888910;29;20041;-66
2022/08/21 07:03:42;;;;;;;10.27;9.57;;;;;;;;;;4886162;29;20067;-66
2022/08/21 07:06:10;;;;;;;10.00;9.20;;;;;;;;;;4889665;29;20405;-67
2022/08/21 07:08:36;;;;;;;10.00;9.07;;;;;;;;;;4890342;29;20035;-66
2022/08/21 07:11:07;;;;;;;9.82;8.98;;;;;;;;;;4890291;29;20036;-66
2022/08/21 07:13:33;;;;;;;9.73;9.02;;;;;;;;;;4889275;29;20041;-67
2022/08/21 07:15:58;;;;;;;9.77;8.95;;;;;;;;;;4888126;29;20035;-66
2022/08/21 07:18:24;;;;;;;9.93;9.00;;;;;;;;;;4886861;29;20041;-67
2022/08/21 07:20:50;;;;;;;9.80;9.00;;;;;;;;;;4890379;29;20048;-66
2022/08/21 07:23:24;;;;;;;9.70;8.90;;;;;;;;;;4890997;29;20060;-66
2022/08/21 07:25:50;;;;;;;8.93;8.38;;;;;;;;;;4889881;29;20565;-66
2022/08/21 07:28:15;;;;;;;9.20;8.57;;;;;;;;;;4888688;29;20040;-66
2022/08/21 07:30:42;;;;;;;8.73;8.07;;;;;;;;;;4885864;29;20428;-67
2022/08/21 07:33:07;;;;;;;9.23;8.60;;;;;;;;;;4888913;29;20036;-67
2022/08/21 07:35:33;;;;;;;9.77;8.98;;;;;;;;;;4893189;29;20033;-66
2022/08/21 07:37:59;;;;;;;9.50;8.68;;;;;;;;;;4892378;29;20127;-67
2022/08/21 07:40:25;;;;;;;9.30;8.50;;;;;;;;;;4893626;29;20036;-67
2022/08/21 07:42:51;;;;;;;9.18;8.40;;;;;;;;;;4894967;29;20745;-67
2022/08/21 07:45:24;;;;;;;9.80;9.00;;;;;;;;;;4894164;29;20509;-67
2022/08/21 07:47:50;;;;;;;11.63;9.10;;;;;;;;;;4896327;29;20032;-66
2022/08/21 07:50:16;;;;;;;9.00;8.20;;;;;;;;;;4896345;29;20032;-67
2022/08/21 07:52:43;;;;;;;9.55;8.30;;;;;;;;;;4895055;29;20039;-67
2022/08/21 07:55:12;;;;;;;8.75;8.10;;;;;;;;;;4893497;29;20040;-67
2022/08/21 07:57:38;;;;;;;9.18;8.38;;;;;;;;;;4910299;29;20055;-67
2022/08/21 08:00:07;;;;;;;8.70;8.10;;;;;;;;;;4895663;29;20048;-67
2022/08/21 08:02:38;;;;;;;11.07;8.35;;;;;;;;;;4892663;29;20048;-67
2022/08/21 08:05:06;;;;;;;9.00;8.30;;;;;;;;;;4895054;29;20052;-66
2022/08/21 08:07:31;;;;;;;8.77;7.65;;;;;;;;;;4895313;29;20041;-67
2022/08/21 08:09:58;;;;;;;8.60;7.80;;;;;;;;;;4894118;29;20040;-67
2022/08/21 08:12:28;;;;;;;10.02;8.32;;;;;;;;;;4893752;29;20028;-67
2022/08/21 08:14:59;;;;;;;9.20;8.45;;;;;;;;;;4892684;29;20024;-67
2022/08/21 08:17:25;;;;;;;9.63;7.95;;;;;;;;;;4892639;29;20053;-67
2022/08/21 08:19:51;;;;;;;10.73;8.70;;;;;;;;;;4895330;29;20543;-67
2022/08/21 08:22:19;;;;;;;9.02;8.20;;;;;;;;;;4894205;29;20036;-67
2022/08/21 08:24:48;;;;;;;8.70;7.78;;;;;;;;;;4892432;29;20500;-67
2022/08/21 08:27:15;;;;;;;8.27;7.53;;;;;;;;;;4890000;29;20068;-67
2022/08/21 08:29:42;;;;;;;8.40;7.63;;;;;;;;;;4889748;29;20040;-67
2022/08/21 08:32:07;;;;;;;8.88;8.15;;;;;;;;;;4892022;29;20108;-66
2022/08/21 08:34:35;;;;;;;13.98;8.02;;;;;;;;;;4891413;29;20139;-67
2022/08/21 08:37:01;;;;;;;8.43;7.65;;;;;;;;;;4894056;29;20103;-67
2022/08/21 08:39:27;;;;;;;8.52;7.70;;;;;;;;;;4892872;29;20049;-67
2022/08/21 08:42:06;;;;;;;10.77;7.60;;;;;;;;;;4889228;29;20040;-66
2022/08/21 08:44:33;;;;;;;8.02;7.28;;;;;;;;;;4890907;29;20492;-67
2022/08/21 08:47:00;;;;;;;9.20;7.70;;;;;;;;;;4893604;29;20040;-67
2022/08/21 08:49:42;;;;;;;8.40;7.60;;;;;;;;;;4890766;29;20038;-66
2022/08/21 08:52:27;;;;;;;8.63;7.68;;;;;;;;;;4892092;29;20044;-66
2022/08/21 08:55:04;;;;;;;8.90;7.75;;;;;;;;;;4907194;29;20040;-66
2022/08/21 08:57:32;;;;;;;8.90;8.00;;;;;;;;;;4894235;29;20036;-66
2022/08/21 09:00:10;;;;;;;8.90;7.97;;;;;;;;;;4893521;29;20043;-64
2022/08/21 09:02:40;;;;;;;;;;;;;;;;;;4892119;29;20076;-65
2022/08/21 09:05:07;;;;;;;9.13;8.23;;;;;;;;;;4892590;29;19965;-65
2022/08/21 09:07:45;;;;;;;8.60;7.90;;;;;;;;;;4893128;29;20059;-64
2022/08/21 09:10:23;;;;;;;9.27;8.23;;;;;;;;;;4892860;29;20074;-65
2022/08/21 09:13:23;;;;;;;8.70;8.00;;;;;;;;;;4892779;29;20092;-65
2022/08/21 09:16:22;;;;;;;10.77;7.72;;;;;;;;;;4891469;29;20044;-65
2022/08/21 09:19:16;;;;;;;9.30;7.82;;;;;;;;;;4872616;29;20145;-64
2022/08/21 09:21:59;;;;;;;8.75;7.95;;;;;;;;;;4891413;29;20044;-66
2022/08/21 09:25:14;;;;;;;9.15;8.20;;;;;;;;;;4892793;29;20143;-66
2022/08/21 09:27:40;;;;;;;9.07;8.27;;;;;;;;;;4870862;29;20899;-65
2022/08/21 09:30:07;;;;;;;9.05;8.23;;;;;;;;;;4870669;29;20112;-65
2022/08/21 09:32:36;;;;;;;8.77;7.97;;;;;;;;;;4867223;29;20088;-66
2022/08/21 09:35:22;;;;;;;9.35;8.50;;;;;;;;;;4868595;29;20482;-65
2022/08/21 09:38:02;;;;;;;9.95;7.72;;;;;;;;;;4868018;29;20124;-64
2022/08/21 09:40:39;;;;;;;8.32;7.63;;;;;;;;;;4871039;29;20102;-65
2022/08/21 09:43:16;;;;;;;9.73;7.53;;;;;;;;;;4869759;29;20074;-65
2022/08/21 09:45:44;;;;;;;10.82;7.80;;;;;;;;;;4870969;29;20060;-65
2022/08/21 09:48:23;;;;;;;9.13;8.00;;;;;;;;;;4871063;29;20116;-66
2022/08/21 09:50:49;;;;;;;;;;;;;;;;;;4870090;29;20129;-65
2022/08/21 09:53:29;;;;;;;8.65;7.30;;;;;;;;;;4865468;29;19959;-65
2022/08/21 09:58:47;;;;;;;10.02;7.53;;;;;;;;;;4866982;29;20316;-65
2022/08/21 10:01:20;;;;;;;8.00;7.25;;;;;;;;;;4868658;29;20045;-65
2022/08/21 10:03:46;;;;;;;10.68;7.60;;;;;;;;;;4872475;29;20091;-65
2022/08/21 10:06:23;;;;;;;9.43;7.70;;;;;;;;;;4891367;29;20373;-65
2022/08/21 10:08:48;;;;;;;8.77;7.65;;;;;;;;;;4889281;29;20040;-65
2022/08/21 10:11:16;;;;;;;10.43;7.50;;;;;;;;;;4891091;29;20039;-65
2022/08/21 10:14:00;;;;;;;8.67;7.23;;;;;;;;;;4888260;29;20477;-66
2022/08/21 10:16:44;;;;;;;7.68;7.03;;;;;;;;;;4892880;29;20296;-65
2022/08/21 10:19:35;;;;;;;13.52;7.80;;;;;;;;;;4888809;29;20127;-66
2022/08/21 10:22:19;;;;;;;8.27;7.43;;;;;;;;;;4892245;29;20041;-65
2022/08/21 10:24:44;;;;;;;8.82;7.38;;;;;;;;;;4892148;29;20032;-65
2022/08/21 10:27:40;;;;;;;9.32;7.30;;;;;;;;;;4891661;29;20520;-65
2022/08/21 10:30:08;;;;;;;9.35;7.60;;;;;;;;;;4891868;29;20107;-66
2022/08/21 10:33:06;;;;;;;7.50;6.97;;;;;;;;;;4893015;29;20592;-65
2022/08/21 10:35:51;;;;;;;8.15;7.10;;;;;;;;;;4888812;29;20048;-65
2022/08/21 10:38:55;;;;;;;11.38;7.45;;;;;;;;;;4905735;29;20127;-65
2022/08/21 10:42:03;;;;;;;7.95;7.25;;;;;;;;;;4891733;29;20051;-66
2022/08/21 10:44:53;;;;;;;8.80;7.60;;;;;;;;;;4892413;29;20029;-66
2022/08/21 10:47:23;;;;;;;8.25;6.97;;;;;;;;;;4892098;29;20055;-65
2022/08/21 10:50:08;;;;;;;8.32;7.25;;;;;;;;;;4892102;29;20044;-66
2022/08/21 10:53:07;;;;;;;8.02;7.20;;;;;;;;;;4890977;29;20095;-66
2022/08/21 10:55:54;;;;;;;9.80;7.53;;;;;;;;;;4892031;29;20028;-66
2022/08/21 10:58:28;;;;;;;9.43;7.57;;;;;;;;;;4889501;29;20040;-64
2022/08/21 11:01:03;;;;;;;7.80;7.00;;;;;;;;;;4892100;29;20315;-65
2022/08/21 11:03:36;;;;;;;9.23;7.13;;;;;;;;;;4889572;29;20040;-65
2022/08/21 11:06:12;;;;;;;7.53;6.80;;;;;;;;;;4891412;29;20527;-65
2022/08/21 11:08:45;;;;;;;8.07;7.38;;;;;;;;;;4891798;29;20132;-65
2022/08/21 11:11:38;;;;;;;9.30;7.90;;;;;;;;;;4893510;29;20033;-65
2022/08/21 11:14:24;;;;;;;8.68;7.82;;;;;;;;;;4895498;29;20096;-64
2022/08/21 11:17:02;;;;;;;8.18;7.40;;;;;;;;;;4895247;29;20037;-65
2022/08/21 11:19:34;;;;;;;12.88;7.35;;;;;;;;;;4895890;29;20044;-65
2022/08/21 11:22:25;;;;;;;7.97;7.18;;;;;;;;;;4895140;29;20678;-65
2022/08/21 11:25:00;;;;;;;7.53;6.75;;;;;;;;;;4894812;29;20599;-65
2022/08/21 11:27:43;;;;;;;7.93;7.10;;;;;;;;;;4891528;29;20036;-65
2022/08/21 11:30:10;;;;;;;7.53;6.78;;;;;;;;;;4894265;29;20063;-65
2022/08/21 11:32:58;;;;;;;8.25;7.45;;;;;;;;;;4894224;29;20041;-65
2022/08/21 11:35:38;;;;;;;8.77;7.33;;;;;;;;;;4894995;29;20385;-65
2022/08/21 11:38:23;;;;;;;9.80;7.07;;;;;;;;;;4894734;29;20076;-65
2022/08/21 11:41:09;;;;;;;7.95;7.10;;;;;;;;;;4896104;29;20049;-65
2022/08/21 11:43:45;;;;;;;7.90;7.10;;;;;;;;;;4893730;29;20237;-65
2022/08/21 11:46:25;;;;;;;9.13;7.55;;;;;;;;;;4893266;29;20524;-65
2022/08/21 11:49:16;;;;;;;7.95;7.25;;;;;;;;;;4893367;29;20127;-65
2022/08/21 11:51:52;;;;;;;10.27;7.75;;;;;;;;;;4890189;29;20045;-65
2022/08/21 11:54:23;;;;;;;8.00;7.30;;;;;;;;;;4908759;29;20053;-66
2022/08/21 11:57:01;;;;;;;8.75;7.85;;;;;;;;;;4893957;29;20048;-66
2022/08/21 11:59:43;;;;;;;9.23;7.65;;;;;;;;;;4888413;29;20067;-65
2022/08/21 12:02:14;;;;;;;8.45;7.60;;;;;;;;;;4892091;29;20041;-66
2022/08/21 12:05:04;;;;;;;9.50;7.95;;;;;;;;;;4893229;29;20303;-66
2022/08/21 12:07:44;;;;;;;8.52;7.78;;;;;;;;;;4885780;29;20048;-66
2022/08/21 12:10:14;;;;;;;8.60;7.90;;;;;;;;;;4892477;29;20096;-66
2022/08/21 12:12:42;;;;;;;10.13;8.25;;;;;;;;;;4893775;29;20048;-66
2022/08/21 12:15:20;;;;;;;9.95;8.52;;;;;;;;;;4893629;29;20040;-65
2022/08/21 12:18:03;;;;;;;9.45;8.65;;;;;;;;;;4892760;29;20075;-65
2022/08/21 12:20:29;;;;;;;9.85;8.85;;;;;;;;;;4894439;29;20037;-65
2022/08/21 12:23:09;;;;;;;9.95;8.95;;;;;;;;;;4889674;29;20051;-66
2022/08/21 12:25:46;;;;;;;8.57;7.97;;;;;;;;;;4890572;29;20550;-66
2022/08/21 12:28:15;;;;;;;13.45;8.38;;;;;;;;;;4892924;29;20035;-65
2022/08/21 12:30:45;;;;;;;9.10;8.30;;;;;;;;;;4892261;29;20628;-66
2022/08/21 12:33:30;;;;;;;9.30;8.50;;;;;;;;;;4890763;29;20100;-66
2022/08/21 12:36:25;;;;;;;10.40;9.38;;;;;;;;;;4893647;29;20068;-65
2022/08/21 12:38:56;;;;;;;10.93;9.00;;;;;;;;;;4890625;29;20045;-66
2022/08/21 12:41:29;;;;;;;9.45;8.55;;;;;;;;;;4893630;29;20029;-65
2022/08/21 12:44:08;;;;;;;9.43;8.63;;;;;;;;;;4891117;29;20365;-65
2022/08/21 12:46:39;;;;;;;9.80;9.00;;;;;;;;;;4890369;29;20036;-65
2022/08/21 12:49:15;;;;;;;9.63;8.45;;;;;;;;;;4889914;29;20049;-67
2022/08/21 12:51:55;;;;;;;10.02;9.13;;;;;;;;;;4891723;29;20127;-66
2022/08/21 12:54:36;;;;;;;9.93;9.13;;;;;;;;;;4893544;29;20051;-65
2022/08/21 12:57:05;;;;;;;9.55;8.75;;;;;;;;;;4891292;29;20040;-65
2022/08/21 12:59:31;;;;;;;9.82;8.90;;;;;;;;;;4893017;29;20370;-65
2022/08/21 13:02:01;;;;;;;9.90;9.10;;;;;;;;;;4892448;29;20043;-65
2022/08/21 13:04:39;;;;;;;9.90;8.93;;;;;;;;;;4893510;29;20037;-65
2022/08/21 13:07:10;;;;;;;9.68;8.80;;;;;;;;;;4889616;29;20063;-66
2022/08/21 13:09:54;;;;;;;9.60;8.80;;;;;;;;;;4891368;29;20147;-66
2022/08/21 13:12:21;;;;;;;9.10;8.40;;;;;;;;;;4892388;29;20045;-66
2022/08/21 13:14:50;;;;;;;9.80;8.90;;;;;;;;;;4890848;29;20036;-66
2022/08/21 13:17:21;;;;;;;10.48;9.50;;;;;;;;;;4892720;29;20489;-66
2022/08/21 13:20:00;;;;;;;9.48;8.70;;;;;;;;;;4890186;29;20051;-66
2022/08/21 13:22:27;;;;;;;9.60;8.90;;;;;;;;;;4891834;29;20453;-66
2022/08/21 13:24:53;;;;;;;9.52;8.82;;;;;;;;;;4902352;29;20052;-65
2022/08/21 13:27:24;;;;;;;9.20;8.45;;;;;;;;;;4890218;29;20369;-66
2022/08/21 13:30:11;;;;;;;9.05;8.45;;;;;;;;;;4892655;29;20127;-66
2022/08/21 13:32:42;;;;;;;9.30;8.57;;;;;;;;;;4890685;29;20177;-66
2022/08/21 13:35:25;;;;;;;9.75;8.90;;;;;;;;;;4887962;29;20115;-66
2022/08/21 13:37:51;;;;;;;9.82;9.10;;;;;;;;;;4889052;29;20056;-65
2022/08/21 13:40:24;;;;;;;9.18;8.48;;;;;;;;;;4892156;29;20037;-65
2022/08/21 13:42:50;;;;;;;9.48;8.80;;;;;;;;;;4890316;29;20449;-65
2022/08/21 13:45:26;;;;;;;9.75;9.00;;;;;;;;;;4887955;29;20032;-65
2022/08/21 13:47:53;;;;;;;9.50;8.70;;;;;;;;;;4892009;29;20395;-65
2022/08/21 13:50:23;;;;;;;9.95;9.07;;;;;;;;;;4891584;29;20032;-65
2022/08/21 13:53:07;;;;;;;9.73;8.98;;;;;;;;;;4891514;29;20060;-65
2022/08/21 13:55:41;;;;;;;9.50;8.80;;;;;;;;;;4891832;29;20037;-66
2022/08/21 13:58:08;;;;;;;10.05;9.25;;;;;;;;;;4892205;29;20059;-65
2022/08/21 14:00:48;;;;;;;10.40;9.50;;;;;;;;;;4885201;29;20471;-65
2022/08/21 14:03:30;;;;;;;9.55;8.70;;;;;;;;;;4888734;29;20059;-65
2022/08/21 14:05:56;;;;;;;9.95;9.15;;;;;;;;;;4891561;29;20028;-66
2022/08/21 14:08:34;;;;;;;9.45;8.80;;;;;;;;;;4890580;29;20043;-66
2022/08/21 14:11:02;;;;;;;;;;;;;;;;;;4885137;29;20547;-65
2022/08/21 14:13:36;;;;;;;10.05;9.25;;;;;;;;;;4890486;29;19923;-65
2022/08/21 14:16:09;;;;;;;10.02;9.32;;;;;;;;;;4891477;29;20040;-66
2022/08/21 14:19:01;;;;;;;10.15;9.23;;;;;;;;;;4892328;29;20118;-66
2022/08/21 14:21:32;;;;;;;9.68;8.85;;;;;;;;;;4888686;29;20037;-65
2022/08/21 14:24:23;;;;;;;9.65;8.93;;;;;;;;;;4884034;29;20541;-65
2022/08/21 14:26:55;;;;;;;9.75;8.98;;;;;;;;;;4890076;29;20184;-66
2022/08/21 14:29:25;;;;;;;9.23;8.40;;;;;;;;;;4890742;29;20043;-65
2022/08/21 14:31:55;;;;;;;8.43;7.80;;;;;;;;;;4886705;29;20119;-66
2022/08/21 14:34:23;;;;;;;9.73;8.98;;;;;;;;;;4890388;29;20091;-65
2022/08/21 14:36:49;;;;;;;10.40;9.60;;;;;;;;;;4890332;29;20044;-65
2022/08/21 14:39:15;;;;;;;16.13;9.30;;;;;;;;;;4888929;29;20128;-65
2022/08/21 14:41:42;;;;;;;9.48;8.80;;;;;;;;;;4886694;29;20144;-66
2022/08/21 14:44:08;;;;;;;10.15;9.38;;;;;;;;;;4889053;29;20119;-65
2022/08/21 14:46:35;;;;;;;9.77;9.13;;;;;;;;;;4886472;29;20123;-65
2022/08/21 14:49:02;;;;;;;10.25;9.35;;;;;;;;;;4887850;29;20096;-65
2022/08/21 14:51:28;;;;;;;9.70;9.10;;;;;;;;;;4884349;29;20060;-65
2022/08/21 14:53:53;;;;;;;9.68;8.88;;;;;;;;;;4890702;29;20044;-65
2022/08/21 14:56:20;;;;;;;9.88;9.15;;;;;;;;;;4887236;29;20047;-65